sensor_id;sensor_type;location;lat;lon;timestamp;pressure;altitude;pressure_sealevel;temperature;humidity
47374;BME280;33123;50.118;10.272;2022-10-31T00:00:52;98148.09;;;14.02;76.64
47374;BME280;33123;50.118;10.272;2022-10-31T00:03:19;98156.31;;;14.00;77.08
47374;BME280;33123;50.118;10.272;2022-10-31T00:05:47;98154.69;;;13.99;77.16
47374;BME280;33123;50.118;10.272;2022-10-31T00:08:15;98149.38;;;13.99;76.96
47374;BME280;33123;50.118;10.272;2022-10-31T00:10:43;98159.75;;;14.00;77.02
47374;BME280;33123;50.118;10.272;2022-10-31T00:13:11;98155.25;;;14.01;76.65
47374;BME280;33123;50.118;10.272;2022-10-31T00:15:39;98120.94;;;13.79;77.03
47374;BME280;33123;50.118;10.272;2022-10-31T00:18:08;98150.47;;;14.03;77.61
47374;BME280;33123;50.118;10.272;2022-10-31T00:20:35;98155.25;;;14.01;78.02
47374;BME280;33123;50.118;10.272;2022-10-31T00:23:02;98153.41;;;14.02;78.08
47374;BME280;33123;50.118;10.272;2022-10-31T00:25:33;98152.59;;;14.01;77.66
47374;BME280;33123;50.118;10.272;2022-10-31T00:28:00;98157.09;;;14.00;77.77
47374;BME280;33123;50.118;10.272;2022-10-31T00:30:26;98161.09;;;14.03;78.10
47374;BME280;33123;50.118;10.272;2022-10-31T00:32:53;98155.78;;;14.03;78.27
47374;BME280;33123;50.118;10.272;2022-10-31T00:35:21;98159.50;;;14.02;77.87
47374;BME280;33123;50.118;10.272;2022-10-31T00:37:47;98157.63;;;14.03;77.58
47374;BME280;33123;50.118;10.272;2022-10-31T00:40:14;98152.59;;;14.01;77.89
47374;BME280;33123;50.118;10.272;2022-10-31T00:42:41;98138.50;;;13.90;78.21
47374;BME280;33123;50.118;10.272;2022-10-31T00:45:08;98152.03;;;13.99;78.46
47374;BME280;33123;50.118;10.272;2022-10-31T00:47:35;98149.38;;;13.99;79.11
47374;BME280;33123;50.118;10.272;2022-10-31T00:50:02;98147.81;;;13.98;78.59
47374;BME280;33123;50.118;10.272;2022-10-31T00:52:30;98154.69;;;13.99;78.58
47374;BME280;33123;50.118;10.272;2022-10-31T00:54:56;98146.22;;;13.97;79.48
47374;BME280;33123;50.118;10.272;2022-10-31T00:57:23;98149.38;;;13.99;80.11
47374;BME280;33123;50.118;10.272;2022-10-31T00:59:49;98143.28;;;13.98;79.75
47374;BME280;33123;50.118;10.272;2022-10-31T01:02:16;98145.72;;;14.00;79.56
47374;BME280;33123;50.118;10.272;2022-10-31T01:04:42;98140.94;;;14.02;79.20
47374;BME280;33123;50.118;10.272;2022-10-31T01:07:09;98138.28;;;14.02;78.49
47374;BME280;33123;50.118;10.272;2022-10-31T01:09:38;98138.03;;;14.04;78.22
47374;BME280;33123;50.118;10.272;2022-10-31T01:12:05;98138.81;;;14.04;77.98
47374;BME280;33123;50.118;10.272;2022-10-31T01:14:32;98138.81;;;14.04;77.98
47374;BME280;33123;50.118;10.272;2022-10-31T01:16:59;98142.25;;;14.05;77.76
47374;BME280;33123;50.118;10.272;2022-10-31T01:19:25;98141.47;;;14.04;77.54
47374;BME280;33123;50.118;10.272;2022-10-31T01:21:53;98141.47;;;14.04;77.83
47374;BME280;33123;50.118;10.272;2022-10-31T01:24:20;98141.47;;;14.04;77.81
47374;BME280;33123;50.118;10.272;2022-10-31T01:26:48;98145.97;;;14.04;77.66
47374;BME280;33123;50.118;10.272;2022-10-31T01:29:15;98141.75;;;14.03;77.30
47374;BME280;33123;50.118;10.272;2022-10-31T01:31:41;98143.06;;;14.00;77.29
47374;BME280;33123;50.118;10.272;2022-10-31T01:34:09;98138.78;;;13.99;76.84
47374;BME280;33123;50.118;10.272;2022-10-31T01:36:39;98141.19;;;13.95;76.08
47374;BME280;33123;50.118;10.272;2022-10-31T01:39:06;98138.22;;;13.92;75.74
47374;BME280;33123;50.118;10.272;2022-10-31T01:41:36;98138.75;;;13.89;75.96
47374;BME280;33123;50.118;10.272;2022-10-31T01:47:06;98133.66;;;13.82;76.36
47374;BME280;33123;50.118;10.272;2022-10-31T01:49:36;98089.56;;;13.56;77.22
47374;BME280;33123;50.118;10.272;2022-10-31T01:52:08;97915.53;;;12.29;77.57
47374;BME280;33123;50.118;10.272;2022-10-31T01:54:40;98032.78;;;13.09;77.66
47374;BME280;33123;50.118;10.272;2022-10-31T01:57:09;98069.06;;;13.41;78.00
47374;BME280;33123;50.118;10.272;2022-10-31T01:59:40;98125.72;;;13.77;77.35
47374;BME280;33123;50.118;10.272;2022-10-31T02:02:09;98123.28;;;13.76;77.31
47374;BME280;33123;50.118;10.272;2022-10-31T02:04:36;98125.41;;;13.73;77.30
47374;BME280;33123;50.118;10.272;2022-10-31T02:07:08;98131.22;;;13.70;76.55
47374;BME280;33123;50.118;10.272;2022-10-31T02:09:37;98132.53;;;13.68;76.38
47374;BME280;33123;50.118;10.272;2022-10-31T02:12:05;98129.56;;;13.64;76.61
47374;BME280;33123;50.118;10.272;2022-10-31T02:14:33;98126.41;;;13.62;76.44
47374;BME280;33123;50.118;10.272;2022-10-31T02:17:00;98125.34;;;13.63;76.65
47374;BME280;33123;50.118;10.272;2022-10-31T02:19:32;98131.69;;;13.62;76.72
47374;BME280;33123;50.118;10.272;2022-10-31T02:22:06;98117.63;;;13.57;76.27
47374;BME280;33123;50.118;10.272;2022-10-31T02:24:58;98127.94;;;13.58;76.39
47374;BME280;33123;50.118;10.272;2022-10-31T02:27:45;98115.72;;;13.52;76.68
47374;BME280;33123;50.118;10.272;2022-10-31T02:30:18;98117.06;;;13.55;76.78
47374;BME280;33123;50.118;10.272;2022-10-31T02:33:05;98121.56;;;13.54;76.50
47374;BME280;33123;50.118;10.272;2022-10-31T02:35:42;98098.41;;;13.34;76.60
47374;BME280;33123;50.118;10.272;2022-10-31T02:38:21;98127.91;;;13.53;76.53
47374;BME280;33123;50.118;10.272;2022-10-31T02:40:53;98114.38;;;13.44;77.15
47374;BME280;33123;50.118;10.272;2022-10-31T02:43:28;98124.72;;;13.51;77.38
47374;BME280;33123;50.118;10.272;2022-10-31T02:46:01;98131.09;;;13.50;76.91
47374;BME280;33123;50.118;10.272;2022-10-31T02:48:34;98126.81;;;13.49;76.58
47374;BME280;33123;50.118;10.272;2022-10-31T02:51:04;98129.47;;;13.49;77.42
47374;BME280;33123;50.118;10.272;2022-10-31T02:53:32;98144.31;;;13.50;78.18
47374;BME280;33123;50.118;10.272;2022-10-31T02:56:01;98140.34;;;13.53;78.83
47374;BME280;33123;50.118;10.272;2022-10-31T02:58:34;98144.38;;;13.55;78.33
47374;BME280;33123;50.118;10.272;2022-10-31T03:01:14;98143.03;;;13.58;77.21
47374;BME280;33123;50.118;10.272;2022-10-31T03:03:58;98143.84;;;13.58;77.28
47374;BME280;33123;50.118;10.272;2022-10-31T03:06:30;98143.84;;;13.58;76.93
47374;BME280;33123;50.118;10.272;2022-10-31T03:09:03;98144.38;;;13.55;76.77
47374;BME280;33123;50.118;10.272;2022-10-31T03:11:39;98143.53;;;13.55;77.32
47374;BME280;33123;50.118;10.272;2022-10-31T03:14:12;98138.25;;;13.55;76.99
47374;BME280;33123;50.118;10.272;2022-10-31T03:16:45;98139.06;;;13.55;77.37
47374;BME280;33123;50.118;10.272;2022-10-31T03:19:17;98153.34;;;13.54;78.03
47374;BME280;33123;50.118;10.272;2022-10-31T03:21:48;98142.22;;;13.52;77.32
47374;BME280;33123;50.118;10.272;2022-10-31T03:24:16;98140.63;;;13.51;77.60
47374;BME280;33123;50.118;10.272;2022-10-31T03:26:46;98147.78;;;13.51;77.71
47374;BME280;33123;50.118;10.272;2022-10-31T03:29:15;98146.19;;;13.50;77.66
47374;BME280;33123;50.118;10.272;2022-10-31T03:31:46;98144.28;;;13.45;77.87
47374;BME280;33123;50.118;10.272;2022-10-31T03:34:17;98147.47;;;13.47;78.43
47374;BME280;33123;50.118;10.272;2022-10-31T03:36:46;98149.84;;;13.48;78.66
47374;BME280;33123;50.118;10.272;2022-10-31T03:39:15;98149.84;;;13.48;78.99
47374;BME280;33123;50.118;10.272;2022-10-31T03:41:46;98145.88;;;13.46;78.31
47374;BME280;33123;50.118;10.272;2022-10-31T03:44:17;98144.03;;;13.46;77.98
47374;BME280;33123;50.118;10.272;2022-10-31T03:46:45;98112.53;;;13.18;77.53
47374;BME280;33123;50.118;10.272;2022-10-31T03:49:12;98146.94;;;13.45;77.12
47374;BME280;33123;50.118;10.272;2022-10-31T03:51:44;98121.66;;;13.27;76.98
47374;BME280;33123;50.118;10.272;2022-10-31T03:54:15;98154.31;;;13.43;76.85
47374;BME280;33123;50.118;10.272;2022-10-31T03:56:50;98155.94;;;13.44;76.82
47374;BME280;33123;50.118;10.272;2022-10-31T03:59:21;98156.97;;;13.43;77.01
47374;BME280;33123;50.118;10.272;2022-10-31T04:01:55;98156.97;;;13.43;77.13
47374;BME280;33123;50.118;10.272;2022-10-31T04:04:24;98156.91;;;13.38;77.26
47374;BME280;33123;50.118;10.272;2022-10-31T04:06:53;98160.09;;;13.35;77.04
47374;BME280;33123;50.118;10.272;2022-10-31T04:09:22;98150.78;;;13.32;77.10
47374;BME280;33123;50.118;10.272;2022-10-31T04:11:51;98153.19;;;13.34;77.32
47374;BME280;33123;50.118;10.272;2022-10-31T04:14:20;98157.94;;;13.32;77.01
47374;BME280;33123;50.118;10.272;2022-10-31T04:16:48;98154.22;;;13.28;76.48
47374;BME280;33123;50.118;10.272;2022-10-31T04:19:14;98161.03;;;13.24;76.85
47374;BME280;33123;50.118;10.272;2022-10-31T04:21:41;98154.38;;;13.21;76.41
47374;BME280;33123;50.118;10.272;2022-10-31T04:24:10;98155.50;;;13.25;75.73
47374;BME280;33123;50.118;10.272;2022-10-31T04:26:37;98149.31;;;13.19;75.95
47374;BME280;33123;50.118;10.272;2022-10-31T04:29:03;98153.56;;;13.20;75.74
47374;BME280;33123;50.118;10.272;2022-10-31T04:31:30;98155.66;;;13.18;75.36
47374;BME280;33123;50.118;10.272;2022-10-31T04:33:57;98152.72;;;13.15;75.24
47374;BME280;33123;50.118;10.272;2022-10-31T04:36:23;98152.38;;;13.06;75.39
47374;BME280;33123;50.118;10.272;2022-10-31T04:38:50;98148.63;;;13.02;75.33
47374;BME280;33123;50.118;10.272;2022-10-31T04:41:18;98150.19;;;12.98;75.00
47374;BME280;33123;50.118;10.272;2022-10-31T04:43:44;98144.88;;;12.98;74.47
47374;BME280;33123;50.118;10.272;2022-10-31T04:46:11;98146.19;;;12.95;74.05
47374;BME280;33123;50.118;10.272;2022-10-31T04:48:37;98150.13;;;12.93;73.98
47374;BME280;33123;50.118;10.272;2022-10-31T04:51:04;98141.13;;;12.89;74.02
47374;BME280;33123;50.118;10.272;2022-10-31T04:53:31;98140.81;;;12.85;74.18
47374;BME280;33123;50.118;10.272;2022-10-31T04:55:58;98140.50;;;12.82;74.18
47374;BME280;33123;50.118;10.272;2022-10-31T04:58:27;98133.31;;;12.77;74.38
47374;BME280;33123;50.118;10.272;2022-10-31T05:00:54;98129.31;;;12.75;74.68
47374;BME280;33123;50.118;10.272;2022-10-31T05:03:21;98138.78;;;12.71;74.72
47374;BME280;33123;50.118;10.272;2022-10-31T05:05:48;98099.94;;;12.49;75.50
47374;BME280;33123;50.118;10.272;2022-10-31T05:08:15;98117.44;;;12.50;75.57
47374;BME280;33123;50.118;10.272;2022-10-31T05:10:42;98128.94;;;12.61;75.82
47374;BME280;33123;50.118;10.272;2022-10-31T05:13:08;98127.31;;;12.60;75.78
47374;BME280;33123;50.118;10.272;2022-10-31T05:15:36;98130.47;;;12.57;75.48
47374;BME280;33123;50.118;10.272;2022-10-31T05:18:03;98099.88;;;12.39;75.46
47374;BME280;33123;50.118;10.272;2022-10-31T05:20:30;98123.81;;;12.54;75.78
47374;BME280;33123;50.118;10.272;2022-10-31T05:22:58;98128.28;;;12.54;76.08
47374;BME280;33123;50.118;10.272;2022-10-31T05:25:26;98123.00;;;12.54;76.87
47374;BME280;33123;50.118;10.272;2022-10-31T05:27:54;98122.78;;;12.55;76.88
47374;BME280;33123;50.118;10.272;2022-10-31T05:30:23;98123.81;;;12.54;76.67
47374;BME280;33123;50.118;10.272;2022-10-31T05:32:51;98120.13;;;12.55;76.34
47374;BME280;33123;50.118;10.272;2022-10-31T05:35:19;98125.44;;;12.55;75.53
47374;BME280;33123;50.118;10.272;2022-10-31T05:37:47;98066.06;;;12.19;75.13
47374;BME280;33123;50.118;10.272;2022-10-31T05:43:35;98115.81;;;12.49;75.57
47374;BME280;33123;50.118;10.272;2022-10-31T05:46:02;98120.31;;;12.49;75.82
47374;BME280;33123;50.118;10.272;2022-10-31T05:48:30;98115.00;;;12.49;76.20
47374;BME280;33123;50.118;10.272;2022-10-31T05:50:56;98111.56;;;12.48;76.26
47374;BME280;33123;50.118;10.272;2022-10-31T05:53:23;98111.56;;;12.48;76.30
47374;BME280;33123;50.118;10.272;2022-10-31T05:55:50;98118.47;;;12.49;76.19
47374;BME280;33123;50.118;10.272;2022-10-31T05:58:16;98120.09;;;12.50;76.24
47374;BME280;33123;50.118;10.272;2022-10-31T06:00:43;98103.66;;;12.48;75.84
47374;BME280;33123;50.118;10.272;2022-10-31T06:03:10;98115.34;;;12.52;76.07
47374;BME280;33123;50.118;10.272;2022-10-31T06:05:38;98116.91;;;12.53;75.84
47374;BME280;33123;50.118;10.272;2022-10-31T06:08:05;98120.13;;;12.55;75.46
47374;BME280;33123;50.118;10.272;2022-10-31T06:10:31;98121.72;;;12.56;75.21
47374;BME280;33123;50.118;10.272;2022-10-31T06:12:58;98128.34;;;12.59;75.16
47374;BME280;33123;50.118;10.272;2022-10-31T06:15:24;98129.72;;;12.61;75.62
47374;BME280;33123;50.118;10.272;2022-10-31T06:17:59;98128.16;;;12.65;75.73
47374;BME280;33123;50.118;10.272;2022-10-31T06:20:26;98109.00;;;12.53;75.83
47374;BME280;33123;50.118;10.272;2022-10-31T06:22:54;98136.47;;;12.74;75.48
47374;BME280;33123;50.118;10.272;2022-10-31T06:25:20;98136.78;;;12.78;75.48
47374;BME280;33123;50.118;10.272;2022-10-31T06:27:47;98131.53;;;12.83;75.33
47374;BME280;33123;50.118;10.272;2022-10-31T06:30:14;98135.25;;;12.87;75.47
47374;BME280;33123;50.118;10.272;2022-10-31T06:32:40;98130.28;;;12.90;75.46
47374;BME280;33123;50.118;10.272;2022-10-31T06:35:07;98137.75;;;12.99;75.56
47374;BME280;33123;50.118;10.272;2022-10-31T06:37:34;98136.78;;;13.05;75.73
47374;BME280;33123;50.118;10.272;2022-10-31T06:40:02;98139.22;;;13.11;76.03
47374;BME280;33123;50.118;10.272;2022-10-31T06:42:29;98143.81;;;13.21;75.63
47374;BME280;33123;50.118;10.272;2022-10-31T06:44:55;98139.34;;;13.22;75.35
47374;BME280;33123;50.118;10.272;2022-10-31T06:47:22;98144.72;;;13.37;75.05
47374;BME280;33123;50.118;10.272;2022-10-31T06:49:49;98161.75;;;13.46;74.90
47374;BME280;33123;50.118;10.272;2022-10-31T06:52:15;98154.97;;;13.55;74.65
47374;BME280;33123;50.118;10.272;2022-10-31T06:54:42;98151.38;;;13.71;74.61
47374;BME280;33123;50.118;10.272;2022-10-31T06:57:10;98155.22;;;13.96;73.85
47374;BME280;33123;50.118;10.272;2022-10-31T06:59:36;98160.16;;;14.30;73.81
47374;BME280;33123;50.118;10.272;2022-10-31T07:02:03;98162.47;;;14.68;73.44
47374;BME280;33123;50.118;10.272;2022-10-31T07:04:29;98165.75;;;15.11;71.90
47374;BME280;33123;50.118;10.272;2022-10-31T07:06:56;98153.00;;;15.54;71.05
47374;BME280;33123;50.118;10.272;2022-10-31T07:09:22;98160.72;;;15.86;69.63
47374;BME280;33123;50.118;10.272;2022-10-31T07:11:51;98165.72;;;16.13;68.19
47374;BME280;33123;50.118;10.272;2022-10-31T07:14:19;98168.34;;;16.28;66.73
47374;BME280;33123;50.118;10.272;2022-10-31T07:16:48;98159.00;;;16.36;66.00
47374;BME280;33123;50.118;10.272;2022-10-31T07:19:15;98160.06;;;16.35;65.62
47374;BME280;33123;50.118;10.272;2022-10-31T07:21:42;98156.34;;;16.31;64.90
47374;BME280;33123;50.118;10.272;2022-10-31T07:24:08;98161.69;;;16.31;65.01
47374;BME280;33123;50.118;10.272;2022-10-31T07:26:35;98165.13;;;16.36;65.13
47374;BME280;33123;50.118;10.272;2022-10-31T07:29:01;98161.78;;;16.65;64.87
47374;BME280;33123;50.118;10.272;2022-10-31T07:31:29;98155.78;;;16.99;64.42
47374;BME280;33123;50.118;10.272;2022-10-31T07:33:56;98162.44;;;17.40;63.25
47374;BME280;33123;50.118;10.272;2022-10-31T07:36:23;98164.19;;;17.89;61.95
47374;BME280;33123;50.118;10.272;2022-10-31T07:38:49;98163.19;;;18.33;60.12
47374;BME280;33123;50.118;10.272;2022-10-31T07:41:16;98159.97;;;18.79;59.08
47374;BME280;33123;50.118;10.272;2022-10-31T07:43:42;98158.66;;;19.14;57.40
47374;BME280;33123;50.118;10.272;2022-10-31T07:46:09;98166.31;;;19.53;56.70
47374;BME280;33123;50.118;10.272;2022-10-31T07:48:37;98158.75;;;19.93;55.93
47374;BME280;33123;50.118;10.272;2022-10-31T07:51:04;98162.81;;;20.32;55.10
47374;BME280;33123;50.118;10.272;2022-10-31T07:53:32;98156.78;;;20.68;54.35
47374;BME280;33123;50.118;10.272;2022-10-31T07:55:58;98160.75;;;21.06;53.14
47374;BME280;33123;50.118;10.272;2022-10-31T07:58:25;98158.03;;;21.43;52.10
47374;BME280;33123;50.118;10.272;2022-10-31T08:00:51;98161.75;;;21.78;51.43
47374;BME280;33123;50.118;10.272;2022-10-31T08:03:19;98165.19;;;22.09;50.22
47374;BME280;33123;50.118;10.272;2022-10-31T08:05:47;98156.34;;;22.40;49.50
47374;BME280;33123;50.118;10.272;2022-10-31T08:08:14;98154.97;;;22.69;47.47
47374;BME280;33123;50.118;10.272;2022-10-31T08:10:41;98163.13;;;22.95;47.45
47374;BME280;33123;50.118;10.272;2022-10-31T08:13:09;98155.53;;;23.14;46.39
47374;BME280;33123;50.118;10.272;2022-10-31T08:15:37;98132.44;;;23.04;46.78
47374;BME280;33123;50.118;10.272;2022-10-31T08:18:11;98166.13;;;23.28;46.88
47374;BME280;33123;50.118;10.272;2022-10-31T08:20:37;98168.03;;;23.27;46.19
47374;BME280;33123;50.118;10.272;2022-10-31T08:23:05;98163.72;;;23.26;46.20
47374;BME280;33123;50.118;10.272;2022-10-31T08:25:33;98163.09;;;23.21;45.13
47374;BME280;33123;50.118;10.272;2022-10-31T08:28:01;98130.69;;;22.91;45.21
47374;BME280;33123;50.118;10.272;2022-10-31T08:30:29;98148.09;;;23.02;45.80
47374;BME280;33123;50.118;10.272;2022-10-31T08:33:00;98154.28;;;22.94;45.87
47374;BME280;33123;50.118;10.272;2022-10-31T08:35:28;98157.75;;;22.95;45.52
47374;BME280;33123;50.118;10.272;2022-10-31T08:37:54;98155.53;;;22.88;45.32
47374;BME280;33123;50.118;10.272;2022-10-31T08:40:23;98144.88;;;22.65;45.62
47374;BME280;33123;50.118;10.272;2022-10-31T08:42:56;98143.25;;;22.47;46.70
47374;BME280;33123;50.118;10.272;2022-10-31T08:45:23;98143.97;;;22.22;46.63
47374;BME280;33123;50.118;10.272;2022-10-31T08:47:50;98144.72;;;22.13;47.39
47374;BME280;33123;50.118;10.272;2022-10-31T08:50:17;98139.25;;;21.96;47.88
47374;BME280;33123;50.118;10.272;2022-10-31T08:52:43;98133.03;;;21.87;47.70
47374;BME280;33123;50.118;10.272;2022-10-31T08:55:10;98144.31;;;21.67;48.05
47374;BME280;33123;50.118;10.272;2022-10-31T08:57:38;98141.41;;;21.54;48.54
47374;BME280;33123;50.118;10.272;2022-10-31T09:00:06;98142.38;;;21.36;48.65
47374;BME280;33123;50.118;10.272;2022-10-31T09:02:32;98138.97;;;21.22;49.25
47374;BME280;33123;50.118;10.272;2022-10-31T09:04:59;98143.44;;;21.13;49.47
47374;BME280;33123;50.118;10.272;2022-10-31T09:07:26;98135.38;;;20.90;49.60
47374;BME280;33123;50.118;10.272;2022-10-31T09:09:52;98131.03;;;20.80;50.21
47374;BME280;33123;50.118;10.272;2022-10-31T09:12:20;98139.00;;;20.72;50.24
47374;BME280;33123;50.118;10.272;2022-10-31T09:14:50;98135.00;;;20.83;50.78
47374;BME280;33123;50.118;10.272;2022-10-31T09:17:16;98136.06;;;20.96;49.90
47374;BME280;33123;50.118;10.272;2022-10-31T09:19:43;98132.13;;;21.16;50.25
47374;BME280;33123;50.118;10.272;2022-10-31T09:22:10;98133.94;;;21.29;49.94
47374;BME280;33123;50.118;10.272;2022-10-31T09:24:36;98137.66;;;21.33;49.38
47374;BME280;33123;50.118;10.272;2022-10-31T09:27:03;98136.63;;;21.29;49.74
47374;BME280;33123;50.118;10.272;2022-10-31T09:29:29;98138.09;;;21.13;49.95
47374;BME280;33123;50.118;10.272;2022-10-31T09:31:57;98137.72;;;21.05;50.43
47374;BME280;33123;50.118;10.272;2022-10-31T09:34:24;98136.38;;;20.94;51.11
47374;BME280;33123;50.118;10.272;2022-10-31T09:36:52;98136.41;;;20.80;50.94
47374;BME280;33123;50.118;10.272;2022-10-31T09:39:19;98131.28;;;20.56;51.57
47374;BME280;33123;50.118;10.272;2022-10-31T09:41:57;98134.66;;;20.62;52.39
47374;BME280;33123;50.118;10.272;2022-10-31T09:44:34;98136.84;;;20.46;52.40
47374;BME280;33123;50.118;10.272;2022-10-31T09:47:09;98137.22;;;20.40;53.18
47374;BME280;33123;50.118;10.272;2022-10-31T09:49:55;98131.69;;;20.22;53.23
47374;BME280;33123;50.118;10.272;2022-10-31T09:52:29;98134.25;;;19.86;54.86
47374;BME280;33123;50.118;10.272;2022-10-31T09:54:59;98129.84;;;19.63;55.81
47374;BME280;33123;50.118;10.272;2022-10-31T09:57:33;98130.16;;;19.42;57.12
47374;BME280;33123;50.118;10.272;2022-10-31T10:00:01;98126.56;;;19.33;57.49
47374;BME280;33123;50.118;10.272;2022-10-31T10:02:36;98126.66;;;19.28;57.99
47374;BME280;33123;50.118;10.272;2022-10-31T10:05:04;98134.66;;;19.28;58.21
47374;BME280;33123;50.118;10.272;2022-10-31T10:07:40;98128.16;;;19.34;58.40
47374;BME280;33123;50.118;10.272;2022-10-31T10:10:14;98122.66;;;19.44;58.71
47374;BME280;33123;50.118;10.272;2022-10-31T10:12:59;98127.69;;;19.46;58.55
47374;BME280;33123;50.118;10.272;2022-10-31T10:15:41;98126.91;;;19.45;58.63
47374;BME280;33123;50.118;10.272;2022-10-31T10:18:21;98125.59;;;19.43;58.26
47374;BME280;33123;50.118;10.272;2022-10-31T10:20:58;98122.22;;;19.37;58.36
47374;BME280;33123;50.118;10.272;2022-10-31T10:23:41;98126.72;;;19.23;58.60
47374;BME280;33123;50.118;10.272;2022-10-31T10:26:16;98116.75;;;19.10;58.62
47374;BME280;33123;50.118;10.272;2022-10-31T10:28:46;98112.50;;;19.09;59.46
47374;BME280;33123;50.118;10.272;2022-10-31T10:31:15;98115.97;;;19.09;59.47
47374;BME280;33123;50.118;10.272;2022-10-31T10:33:50;98116.69;;;19.15;59.64
47374;BME280;33123;50.118;10.272;2022-10-31T10:36:21;98120.53;;;19.09;59.28
47374;BME280;33123;50.118;10.272;2022-10-31T10:38:53;98118.16;;;19.07;59.08
47374;BME280;33123;50.118;10.272;2022-10-31T10:41:23;98109.06;;;19.08;59.54
47374;BME280;33123;50.118;10.272;2022-10-31T10:43:51;98105.03;;;19.11;59.07
47374;BME280;33123;50.118;10.272;2022-10-31T10:46:22;98102.84;;;19.13;59.21
47374;BME280;33123;50.118;10.272;2022-10-31T10:49:16;98102.63;;;19.09;60.16
47374;BME280;33123;50.118;10.272;2022-10-31T10:51:45;98106.91;;;19.10;59.69
47374;BME280;33123;50.118;10.272;2022-10-31T10:54:43;98095.84;;;19.17;60.52
47374;BME280;33123;50.118;10.272;2022-10-31T10:57:21;98092.47;;;19.25;59.68
47374;BME280;33123;50.118;10.272;2022-10-31T10:59:49;98092.09;;;19.32;59.83
47374;BME280;33123;50.118;10.272;2022-10-31T11:02:19;98083.66;;;19.43;60.00
47374;BME280;33123;50.118;10.272;2022-10-31T11:04:50;98081.28;;;19.56;59.63
47374;BME280;33123;50.118;10.272;2022-10-31T11:07:17;98074.41;;;19.68;59.89
47374;BME280;33123;50.118;10.272;2022-10-31T11:09:44;98073.03;;;19.85;59.24
47374;BME280;33123;50.118;10.272;2022-10-31T11:12:17;98063.50;;;20.06;59.71
47374;BME280;33123;50.118;10.272;2022-10-31T11:14:50;98068.25;;;20.23;59.56
47374;BME280;33123;50.118;10.272;2022-10-31T11:17:22;98060.97;;;20.37;59.26
47374;BME280;33123;50.118;10.272;2022-10-31T11:20:02;98060.69;;;20.52;59.20
47374;BME280;33123;50.118;10.272;2022-10-31T11:22:30;98055.59;;;20.65;58.92
47374;BME280;33123;50.118;10.272;2022-10-31T11:24:56;98056.03;;;20.80;58.70
47374;BME280;33123;50.118;10.272;2022-10-31T11:27:24;98050.63;;;20.94;58.32
47374;BME280;33123;50.118;10.272;2022-10-31T11:29:52;98029.47;;;20.93;57.93
47374;BME280;33123;50.118;10.272;2022-10-31T11:32:21;98048.88;;;21.21;57.69
47374;BME280;33123;50.118;10.272;2022-10-31T11:34:51;98054.63;;;21.28;57.90
47374;BME280;33123;50.118;10.272;2022-10-31T11:37:21;98043.81;;;21.33;57.41
47374;BME280;33123;50.118;10.272;2022-10-31T11:39:51;98042.69;;;21.34;57.38
47374;BME280;33123;50.118;10.272;2022-10-31T11:42:21;98038.44;;;21.33;57.16
47374;BME280;33123;50.118;10.272;2022-10-31T11:44:50;97984.44;;;20.95;57.03
47374;BME280;33123;50.118;10.272;2022-10-31T11:47:24;98034.88;;;21.24;57.47
47374;BME280;33123;50.118;10.272;2022-10-31T11:49:52;98029.66;;;21.19;57.89
47374;BME280;33123;50.118;10.272;2022-10-31T11:52:22;98029.19;;;21.17;57.78
47374;BME280;33123;50.118;10.272;2022-10-31T11:54:53;98024.53;;;21.08;58.01
47374;BME280;33123;50.118;10.272;2022-10-31T11:57:25;98022.97;;;21.07;57.97
47374;BME280;33123;50.118;10.272;2022-10-31T11:59:54;98018.63;;;20.98;59.05
47374;BME280;33123;50.118;10.272;2022-10-31T12:02:21;98013.91;;;20.95;58.35
47374;BME280;33123;50.118;10.272;2022-10-31T12:04:54;98016.03;;;20.84;59.07
47374;BME280;33123;50.118;10.272;2022-10-31T12:07:24;98012.72;;;20.87;59.21
47374;BME280;33123;50.118;10.272;2022-10-31T12:09:51;98006.91;;;20.85;59.92
47374;BME280;33123;50.118;10.272;2022-10-31T12:12:39;98004.88;;;20.91;59.63
47374;BME280;33123;50.118;10.272;2022-10-31T12:15:22;98000.97;;;20.97;59.72
47374;BME280;33123;50.118;10.272;2022-10-31T12:17:58;98001.16;;;21.00;59.76
47374;BME280;33123;50.118;10.272;2022-10-31T12:20:41;97913.28;;;20.58;59.92
47374;BME280;33123;50.118;10.272;2022-10-31T12:23:17;97991.00;;;21.11;59.44
47374;BME280;33123;50.118;10.272;2022-10-31T12:25:51;97982.94;;;21.11;59.82
47374;BME280;33123;50.118;10.272;2022-10-31T12:28:41;97986.53;;;21.06;59.82
47374;BME280;33123;50.118;10.272;2022-10-31T12:31:22;97980.56;;;21.09;59.94
47374;BME280;33123;50.118;10.272;2022-10-31T12:33:58;97980.28;;;21.11;59.90
47374;BME280;33123;50.118;10.272;2022-10-31T12:36:44;97976.47;;;21.12;59.85
47374;BME280;33123;50.118;10.272;2022-10-31T12:39:25;97964.78;;;21.08;59.37
47374;BME280;33123;50.118;10.272;2022-10-31T12:42:03;97960.34;;;21.03;60.56
47374;BME280;33123;50.118;10.272;2022-10-31T12:44:52;97959.41;;;20.99;60.20
47374;BME280;33123;50.118;10.272;2022-10-31T12:47:40;97948.81;;;20.94;60.88
47374;BME280;33123;50.118;10.272;2022-10-31T12:50:20;97954.78;;;20.91;60.95
47374;BME280;33123;50.118;10.272;2022-10-31T12:52:56;97949.06;;;20.84;60.54
47374;BME280;33123;50.118;10.272;2022-10-31T12:55:38;97943.34;;;20.77;60.67
47374;BME280;33123;50.118;10.272;2022-10-31T12:58:10;97934.78;;;20.66;61.50
47374;BME280;33123;50.118;10.272;2022-10-31T13:00:44;97930.34;;;20.62;61.47
47374;BME280;33123;50.118;10.272;2022-10-31T13:03:20;97927.59;;;20.53;61.78
47374;BME280;33123;50.118;10.272;2022-10-31T13:05:54;97930.38;;;20.48;62.05
47374;BME280;33123;50.118;10.272;2022-10-31T13:08:25;97927.00;;;20.42;62.45
47374;BME280;33123;50.118;10.272;2022-10-31T13:11:02;97917.50;;;20.36;62.41